UPS292 EDDK-ESSA
Flight info
| Callsign | UPS292 |
|---|---|
| Flight time | 1h 45m |
| Altitude | 35000 |
| Route | PODIP1R PODIP Y867 PELUN DCT ANZIV DCT WRB Y867 TOLGI DCT MEGAR DCT LEBDA DCT KEMAX N851 ROXEN DCT BEDOS N851 PELUP Z226 NILUG |
| Aircraft | B763/H-SDE2E3FGHIJ2J4J7LM3RVWXY/LB1D1 |
Departure
| Time | 2026-04-26 16:37 |
|---|---|
| Airport | Cologne Bonn Airport (EDDK) |
Arrival
| Time | 2026-04-26 18:23 |
|---|---|
| Airport | Stockholm-Arlanda Airport (ESSA) |
| Time | Latitude | Longitude | Altitude | Speed | Heading |
|---|---|---|---|---|---|
| 2026-04-26 16:09 | 50.86634 | 7.13320 | 244 ft | 0 kts | 47° |
| 2026-04-26 16:22 | 50.86628 | 7.13308 | 243 ft | 2 kts | 47° |
| 2026-04-26 16:23 | 50.86617 | 7.13290 | 243 ft | 2 kts | 46° |
| 2026-04-26 16:23 | 50.86607 | 7.13273 | 243 ft | 2 kts | 47° |
| 2026-04-26 16:23 | 50.86597 | 7.13255 | 243 ft | 2 kts | 47° |
| 2026-04-26 16:23 | 50.86587 | 7.13237 | 244 ft | 2 kts | 55° |
| 2026-04-26 16:24 | 50.86581 | 7.13217 | 244 ft | 2 kts | 77° |
| 2026-04-26 16:24 | 50.86580 | 7.13194 | 244 ft | 2 kts | 96° |
| 2026-04-26 16:24 | 50.86584 | 7.13173 | 244 ft | 2 kts | 115° |
| 2026-04-26 16:24 | 50.86592 | 7.13154 | 243 ft | 1 kts | 135° |
| 2026-04-26 16:25 | 50.86594 | 7.13150 | 243 ft | 0 kts | 138° |
| 2026-04-26 16:27 | 50.86591 | 7.13155 | 243 ft | 3 kts | 138° |
| 2026-04-26 16:27 | 50.86571 | 7.13183 | 245 ft | 3 kts | 139° |
| 2026-04-26 16:27 | 50.86543 | 7.13222 | 248 ft | 6 kts | 139° |
| 2026-04-26 16:28 | 50.86513 | 7.13274 | 251 ft | 4 kts | 123° |
| 2026-04-26 16:28 | 50.86503 | 7.13326 | 252 ft | 7 kts | 96° |
| 2026-04-26 16:28 | 50.86525 | 7.13424 | 252 ft | 11 kts | 63° |
| 2026-04-26 16:28 | 50.86555 | 7.13540 | 254 ft | 11 kts | 66° |
| 2026-04-26 16:29 | 50.86594 | 7.13672 | 255 ft | 14 kts | 64° |
| 2026-04-26 16:29 | 50.86632 | 7.13795 | 259 ft | 11 kts | 65° |
| 2026-04-26 16:29 | 50.86670 | 7.13921 | 259 ft | 14 kts | 64° |
| 2026-04-26 16:29 | 50.86711 | 7.14060 | 259 ft | 12 kts | 66° |
| 2026-04-26 16:30 | 50.86707 | 7.14164 | 260 ft | 8 kts | 126° |
| 2026-04-26 16:30 | 50.86673 | 7.14218 | 261 ft | 6 kts | 134° |
| 2026-04-26 16:30 | 50.86645 | 7.14265 | 263 ft | 5 kts | 135° |
| 2026-04-26 16:30 | 50.86610 | 7.14317 | 266 ft | 9 kts | 136° |
| 2026-04-26 16:31 | 50.86549 | 7.14406 | 266 ft | 14 kts | 137° |
| 2026-04-26 16:31 | 50.86462 | 7.14531 | 269 ft | 15 kts | 137° |
| 2026-04-26 16:31 | 50.86401 | 7.14621 | 274 ft | 9 kts | 137° |
| 2026-04-26 16:31 | 50.86349 | 7.14697 | 276 ft | 11 kts | 137° |
| 2026-04-26 16:32 | 50.86288 | 7.14786 | 279 ft | 12 kts | 137° |
| 2026-04-26 16:32 | 50.86241 | 7.14853 | 280 ft | 14 kts | 137° |
| 2026-04-26 16:32 | 50.86127 | 7.15019 | 283 ft | 18 kts | 138° |
| 2026-04-26 16:32 | 50.86035 | 7.15149 | 284 ft | 17 kts | 138° |
| 2026-04-26 16:33 | 50.85947 | 7.15279 | 286 ft | 17 kts | 136° |
| 2026-04-26 16:33 | 50.85859 | 7.15410 | 286 ft | 17 kts | 137° |
| 2026-04-26 16:33 | 50.85766 | 7.15543 | 285 ft | 18 kts | 138° |
| 2026-04-26 16:33 | 50.85670 | 7.15677 | 285 ft | 17 kts | 138° |
| 2026-04-26 16:34 | 50.85592 | 7.15790 | 290 ft | 13 kts | 137° |
| 2026-04-26 16:34 | 50.85534 | 7.15874 | 294 ft | 10 kts | 137° |
| 2026-04-26 16:34 | 50.85487 | 7.15968 | 296 ft | 10 kts | 99° |
| 2026-04-26 16:34 | 50.85519 | 7.16066 | 299 ft | 11 kts | 51° |
| 2026-04-26 16:35 | 50.85572 | 7.16158 | 301 ft | 10 kts | 46° |
| 2026-04-26 16:35 | 50.85617 | 7.16235 | 304 ft | 7 kts | 47° |
| 2026-04-26 16:35 | 50.85651 | 7.16292 | 304 ft | 8 kts | 47° |
| 2026-04-26 16:35 | 50.85697 | 7.16311 | 304 ft | 5 kts | 335° |
| 2026-04-26 16:36 | 50.85756 | 7.16230 | 303 ft | 23 kts | 317° |
| 2026-04-26 16:36 | 50.86016 | 7.15855 | 297 ft | 78 kts | 317° |
| 2026-04-26 16:36 | 50.86543 | 7.15092 | 281 ft | 128 kts | 316° |
| 2026-04-26 16:36 | 50.87320 | 7.13957 | 253 ft | 173 kts | 319° |
| 2026-04-26 16:37 | 50.88232 | 7.12645 | 781 ft | 177 kts | 318° |
| 2026-04-26 16:37 | 50.89272 | 7.11699 | 1374 ft | 182 kts | 351° |
| 2026-04-26 16:37 | 50.90562 | 7.11944 | 1703 ft | 201 kts | 17° |
| 2026-04-26 16:37 | 50.91490 | 7.12464 | 1944 ft | 215 kts | 20° |
| 2026-04-26 16:38 | 50.93231 | 7.13865 | 2865 ft | 222 kts | 45° |
| 2026-04-26 16:38 | 50.94096 | 7.15968 | 3365 ft | 238 kts | 63° |
| 2026-04-26 16:38 | 50.94869 | 7.18382 | 3930 ft | 253 kts | 61° |
| 2026-04-26 16:38 | 50.95684 | 7.20892 | 4621 ft | 263 kts | 61° |
| 2026-04-26 16:39 | 50.96518 | 7.23496 | 5475 ft | 267 kts | 61° |
| 2026-04-26 16:39 | 50.97360 | 7.26138 | 6296 ft | 272 kts | 61° |
| 2026-04-26 16:39 | 50.98202 | 7.28791 | 7128 ft | 276 kts | 61° |
| 2026-04-26 16:39 | 50.99070 | 7.31532 | 7924 ft | 280 kts | 61° |
| 2026-04-26 16:40 | 50.99939 | 7.34283 | 8740 ft | 284 kts | 60° |
| 2026-04-26 16:40 | 51.00818 | 7.37071 | 9540 ft | 288 kts | 60° |
| 2026-04-26 16:40 | 51.01636 | 7.39987 | 10292 ft | 295 kts | 73° |
| 2026-04-26 16:40 | 51.01760 | 7.43306 | 10855 ft | 312 kts | 98° |
| 2026-04-26 16:41 | 51.01177 | 7.46707 | 11271 ft | 331 kts | 105° |
| 2026-04-26 16:41 | 51.00488 | 7.50303 | 11714 ft | 349 kts | 105° |
| 2026-04-26 16:41 | 50.99767 | 7.54029 | 12175 ft | 366 kts | 105° |
| 2026-04-26 16:41 | 50.99003 | 7.57954 | 12973 ft | 373 kts | 105° |
| 2026-04-26 16:42 | 50.98239 | 7.61853 | 13801 ft | 377 kts | 105° |
| 2026-04-26 16:42 | 50.97473 | 7.65748 | 14573 ft | 383 kts | 107° |
| 2026-04-26 16:42 | 50.96701 | 7.69667 | 15343 ft | 387 kts | 107° |
| 2026-04-26 16:42 | 50.95938 | 7.73524 | 16079 ft | 391 kts | 107° |
| 2026-04-26 16:43 | 50.95287 | 7.77532 | 16744 ft | 395 kts | 97° |
| 2026-04-26 16:43 | 50.95273 | 7.82027 | 17505 ft | 397 kts | 80° |
| 2026-04-26 16:43 | 50.95971 | 7.86170 | 18178 ft | 399 kts | 65° |
| 2026-04-26 16:43 | 50.97288 | 7.90037 | 18853 ft | 401 kts | 56° |
| 2026-04-26 16:44 | 50.98703 | 7.93835 | 19536 ft | 405 kts | 58° |
| 2026-04-26 16:44 | 51.00121 | 7.97689 | 20201 ft | 408 kts | 57° |
| 2026-04-26 16:44 | 51.01546 | 8.01564 | 20872 ft | 412 kts | 57° |
| 2026-04-26 16:44 | 51.03007 | 8.05530 | 21523 ft | 416 kts | 57° |
| 2026-04-26 16:45 | 51.04462 | 8.09489 | 22124 ft | 420 kts | 57° |
| 2026-04-26 16:45 | 51.05941 | 8.13517 | 22760 ft | 424 kts | 57° |
| 2026-04-26 16:45 | 51.07417 | 8.17539 | 23354 ft | 428 kts | 57° |
| 2026-04-26 16:45 | 51.08910 | 8.21616 | 23973 ft | 431 kts | 57° |
| 2026-04-26 16:46 | 51.10375 | 8.25632 | 24559 ft | 435 kts | 57° |
| 2026-04-26 16:46 | 51.11865 | 8.29737 | 25154 ft | 438 kts | 57° |
| 2026-04-26 16:46 | 51.13351 | 8.33835 | 25731 ft | 442 kts | 57° |
| 2026-04-26 16:46 | 51.14888 | 8.38081 | 26293 ft | 445 kts | 57° |
| 2026-04-26 16:47 | 51.16436 | 8.42364 | 26860 ft | 449 kts | 57° |
| 2026-04-26 16:47 | 51.17974 | 8.46628 | 27410 ft | 452 kts | 57° |
| 2026-04-26 16:47 | 51.19545 | 8.50939 | 27935 ft | 455 kts | 54° |
| 2026-04-26 16:47 | 51.21411 | 8.54986 | 28418 ft | 455 kts | 46° |
| 2026-04-26 16:48 | 51.23411 | 8.58795 | 28906 ft | 459 kts | 47° |
| 2026-04-26 16:48 | 51.25442 | 8.62704 | 29435 ft | 461 kts | 47° |
| 2026-04-26 16:48 | 51.27439 | 8.66532 | 29899 ft | 465 kts | 47° |
| 2026-04-26 16:48 | 51.29342 | 8.70180 | 30330 ft | 468 kts | 47° |
| 2026-04-26 16:49 | 51.31363 | 8.74058 | 30775 ft | 471 kts | 47° |
| 2026-04-26 16:49 | 51.35718 | 8.82425 | 31660 ft | 478 kts | 47° |
| 2026-04-26 16:49 | 51.37842 | 8.86513 | 32088 ft | 480 kts | 47° |
| 2026-04-26 16:50 | 51.39970 | 8.90605 | 32583 ft | 481 kts | 47° |
| 2026-04-26 16:50 | 51.42088 | 8.94681 | 33179 ft | 479 kts | 46° |
| 2026-04-26 16:50 | 51.44387 | 8.98557 | 33696 ft | 473 kts | 37° |
| 2026-04-26 16:50 | 51.46948 | 9.01679 | 34202 ft | 467 kts | 28° |
| 2026-04-26 16:51 | 51.49800 | 9.04107 | 34719 ft | 461 kts | 19° |
| 2026-04-26 16:51 | 51.52736 | 9.06083 | 35129 ft | 460 kts | 21° |
| 2026-04-26 16:51 | 51.55619 | 9.08310 | 35268 ft | 460 kts | 23° |
| 2026-04-26 16:51 | 51.58418 | 9.10684 | 35271 ft | 459 kts | 25° |
| 2026-04-26 16:52 | 51.63073 | 9.14897 | 35275 ft | 460 kts | 26° |
| 2026-04-26 16:52 | 51.69509 | 9.21002 | 35269 ft | 463 kts | 27° |
| 2026-04-26 16:53 | 51.75005 | 9.26338 | 35263 ft | 463 kts | 27° |
| 2026-04-26 16:53 | 51.80463 | 9.31687 | 35268 ft | 463 kts | 27° |
| 2026-04-26 16:54 | 51.85955 | 9.37099 | 35268 ft | 464 kts | 27° |
| 2026-04-26 16:54 | 51.91431 | 9.42514 | 35270 ft | 464 kts | 27° |
| 2026-04-26 16:55 | 51.96913 | 9.47954 | 35274 ft | 465 kts | 27° |
| 2026-04-26 16:55 | 52.02385 | 9.53402 | 35274 ft | 465 kts | 27° |
| 2026-04-26 16:56 | 52.10593 | 9.61601 | 35276 ft | 466 kts | 27° |
| 2026-04-26 16:57 | 52.16003 | 9.67026 | 35271 ft | 466 kts | 28° |
| 2026-04-26 16:57 | 52.24103 | 9.75177 | 35275 ft | 467 kts | 28° |
| 2026-04-26 16:58 | 52.28675 | 9.79793 | 35279 ft | 468 kts | 28° |
| 2026-04-26 16:59 | 52.37883 | 9.89125 | 35277 ft | 468 kts | 28° |
| 2026-04-26 17:00 | 52.48911 | 10.00363 | 35277 ft | 468 kts | 28° |
| 2026-04-26 17:00 | 52.57174 | 10.08828 | 35278 ft | 469 kts | 27° |
| 2026-04-26 17:01 | 52.62701 | 10.14510 | 35276 ft | 469 kts | 28° |
| 2026-04-26 17:01 | 52.68219 | 10.20201 | 35278 ft | 469 kts | 27° |
| 2026-04-26 17:02 | 52.73735 | 10.25908 | 35280 ft | 469 kts | 27° |
| 2026-04-26 17:02 | 52.79259 | 10.31640 | 35277 ft | 470 kts | 27° |
| 2026-04-26 17:03 | 52.84774 | 10.37380 | 35280 ft | 470 kts | 27° |
| 2026-04-26 17:03 | 52.90308 | 10.43157 | 35279 ft | 470 kts | 27° |
| 2026-04-26 17:04 | 52.95826 | 10.48935 | 35277 ft | 470 kts | 27° |
| 2026-04-26 17:04 | 53.01351 | 10.54739 | 35276 ft | 471 kts | 27° |
| 2026-04-26 17:05 | 53.06844 | 10.60525 | 35274 ft | 470 kts | 27° |
| 2026-04-26 17:05 | 53.12249 | 10.66236 | 35276 ft | 470 kts | 28° |
| 2026-04-26 17:06 | 53.17633 | 10.71944 | 35276 ft | 471 kts | 28° |
| 2026-04-26 17:06 | 53.23218 | 10.77882 | 35276 ft | 471 kts | 28° |
| 2026-04-26 17:07 | 53.28724 | 10.83754 | 35286 ft | 470 kts | 28° |
| 2026-04-26 17:07 | 53.34219 | 10.89633 | 35276 ft | 471 kts | 28° |
| 2026-04-26 17:08 | 53.39726 | 10.95543 | 35283 ft | 471 kts | 28° |
| 2026-04-26 17:08 | 53.45205 | 11.01442 | 35285 ft | 471 kts | 28° |
| 2026-04-26 17:09 | 53.49779 | 11.06380 | 35284 ft | 471 kts | 28° |
| 2026-04-26 17:09 | 53.56200 | 11.13334 | 35283 ft | 470 kts | 28° |
| 2026-04-26 17:10 | 53.61692 | 11.19303 | 35281 ft | 470 kts | 28° |
| 2026-04-26 17:10 | 53.67143 | 11.25244 | 35287 ft | 470 kts | 28° |
| 2026-04-26 17:11 | 53.72631 | 11.31245 | 35292 ft | 471 kts | 28° |
| 2026-04-26 17:11 | 53.78101 | 11.37247 | 35288 ft | 470 kts | 28° |
| 2026-04-26 17:12 | 53.86312 | 11.46289 | 35291 ft | 469 kts | 28° |
| 2026-04-26 17:13 | 53.94485 | 11.55332 | 35296 ft | 469 kts | 28° |
| 2026-04-26 17:14 | 54.02673 | 11.64436 | 35295 ft | 470 kts | 28° |
| 2026-04-26 17:14 | 54.10781 | 11.73494 | 35292 ft | 470 kts | 28° |
| 2026-04-26 17:15 | 54.18910 | 11.82619 | 35295 ft | 469 kts | 28° |
| 2026-04-26 17:16 | 54.24369 | 11.88771 | 35297 ft | 470 kts | 28° |
| 2026-04-26 17:16 | 54.29760 | 11.94868 | 35296 ft | 468 kts | 28° |
| 2026-04-26 17:17 | 54.35203 | 12.01041 | 35296 ft | 468 kts | 28° |
| 2026-04-26 17:17 | 54.40620 | 12.07204 | 35298 ft | 469 kts | 28° |
| 2026-04-26 17:18 | 54.46060 | 12.13414 | 35297 ft | 468 kts | 28° |
| 2026-04-26 17:18 | 54.51453 | 12.19591 | 35298 ft | 468 kts | 28° |
| 2026-04-26 17:19 | 54.59544 | 12.28894 | 35296 ft | 468 kts | 28° |
| 2026-04-26 17:19 | 54.64957 | 12.35143 | 35294 ft | 467 kts | 28° |
| 2026-04-26 17:20 | 54.69419 | 12.40311 | 35294 ft | 466 kts | 28° |
| 2026-04-26 17:20 | 54.75674 | 12.47577 | 35290 ft | 466 kts | 27° |
| 2026-04-26 17:21 | 54.81064 | 12.53861 | 35283 ft | 465 kts | 28° |
| 2026-04-26 17:21 | 54.86389 | 12.60090 | 35287 ft | 465 kts | 27° |
| 2026-04-26 17:22 | 54.91733 | 12.66360 | 35280 ft | 465 kts | 28° |
| 2026-04-26 17:22 | 54.97066 | 12.72639 | 35273 ft | 464 kts | 28° |
| 2026-04-26 17:23 | 55.02387 | 12.78924 | 35266 ft | 465 kts | 28° |
| 2026-04-26 17:23 | 55.07726 | 12.85250 | 35273 ft | 463 kts | 28° |
| 2026-04-26 17:24 | 55.13028 | 12.91553 | 35281 ft | 464 kts | 28° |
| 2026-04-26 17:24 | 55.18363 | 12.97918 | 35275 ft | 463 kts | 28° |
| 2026-04-26 17:25 | 55.23651 | 13.04246 | 35272 ft | 461 kts | 28° |
| 2026-04-26 17:25 | 55.28938 | 13.10592 | 35272 ft | 463 kts | 28° |
| 2026-04-26 17:26 | 55.34215 | 13.16949 | 35267 ft | 462 kts | 28° |
| 2026-04-26 17:26 | 55.39524 | 13.23366 | 35266 ft | 462 kts | 28° |
| 2026-04-26 17:27 | 55.44766 | 13.29722 | 35263 ft | 461 kts | 28° |
| 2026-04-26 17:27 | 55.50030 | 13.36127 | 35265 ft | 461 kts | 28° |
| 2026-04-26 17:28 | 55.55288 | 13.42544 | 35262 ft | 460 kts | 28° |
| 2026-04-26 17:28 | 55.60537 | 13.48972 | 35257 ft | 461 kts | 28° |
| 2026-04-26 17:29 | 55.64911 | 13.54346 | 35256 ft | 460 kts | 28° |
| 2026-04-26 17:29 | 55.70993 | 13.61842 | 35251 ft | 459 kts | 28° |
| 2026-04-26 17:30 | 55.76238 | 13.68328 | 35236 ft | 459 kts | 28° |
| 2026-04-26 17:30 | 55.81464 | 13.74814 | 35236 ft | 460 kts | 28° |
| 2026-04-26 17:31 | 55.86683 | 13.81313 | 35228 ft | 459 kts | 28° |
| 2026-04-26 17:31 | 55.91873 | 13.87798 | 35233 ft | 458 kts | 28° |
| 2026-04-26 17:32 | 55.97085 | 13.94332 | 35230 ft | 457 kts | 28° |
| 2026-04-26 17:32 | 56.02258 | 14.00837 | 35231 ft | 458 kts | 28° |
| 2026-04-26 17:33 | 56.07439 | 14.07375 | 35230 ft | 457 kts | 28° |
| 2026-04-26 17:34 | 56.15200 | 14.17211 | 35229 ft | 456 kts | 28° |
| 2026-04-26 17:34 | 56.20351 | 14.23765 | 35229 ft | 455 kts | 28° |
| 2026-04-26 17:35 | 56.25468 | 14.30300 | 35220 ft | 453 kts | 28° |
| 2026-04-26 17:35 | 56.30611 | 14.36889 | 35221 ft | 453 kts | 28° |
| 2026-04-26 17:36 | 56.35726 | 14.43464 | 35216 ft | 453 kts | 28° |
| 2026-04-26 17:36 | 56.40828 | 14.50034 | 35211 ft | 452 kts | 28° |
| 2026-04-26 17:37 | 56.45938 | 14.56645 | 35204 ft | 452 kts | 28° |
| 2026-04-26 17:37 | 56.51001 | 14.63218 | 35198 ft | 451 kts | 28° |
| 2026-04-26 17:38 | 56.58538 | 14.73057 | 35177 ft | 434 kts | 28° |
| 2026-04-26 17:38 | 56.63307 | 14.79304 | 35175 ft | 420 kts | 28° |
| 2026-04-26 17:39 | 56.68070 | 14.85546 | 35189 ft | 428 kts | 28° |
| 2026-04-26 17:39 | 56.72903 | 14.91915 | 35176 ft | 430 kts | 28° |
| 2026-04-26 17:40 | 56.76902 | 14.97204 | 35170 ft | 426 kts | 28° |
| 2026-04-26 17:40 | 56.82455 | 15.04567 | 35169 ft | 425 kts | 28° |
| 2026-04-26 17:41 | 56.87241 | 15.10933 | 35163 ft | 426 kts | 28° |
| 2026-04-26 17:41 | 56.92004 | 15.17291 | 35159 ft | 425 kts | 28° |
| 2026-04-26 17:42 | 56.96749 | 15.23647 | 35156 ft | 424 kts | 28° |
| 2026-04-26 17:42 | 57.01496 | 15.30025 | 35146 ft | 424 kts | 28° |
| 2026-04-26 17:43 | 57.06248 | 15.36429 | 35151 ft | 424 kts | 28° |
| 2026-04-26 17:43 | 57.10931 | 15.42763 | 35155 ft | 423 kts | 28° |
| 2026-04-26 17:44 | 57.15661 | 15.49178 | 35166 ft | 423 kts | 28° |
| 2026-04-26 17:44 | 57.20381 | 15.55603 | 35162 ft | 423 kts | 28° |
| 2026-04-26 17:45 | 57.25066 | 15.62001 | 35157 ft | 420 kts | 28° |
| 2026-04-26 17:45 | 57.29739 | 15.68401 | 35152 ft | 421 kts | 28° |
| 2026-04-26 17:46 | 57.34465 | 15.74896 | 35148 ft | 423 kts | 28° |
| 2026-04-26 17:46 | 57.39150 | 15.81359 | 35147 ft | 420 kts | 28° |
| 2026-04-26 17:47 | 57.43035 | 15.86730 | 35149 ft | 421 kts | 28° |
| 2026-04-26 17:47 | 57.48508 | 15.94323 | 35139 ft | 420 kts | 28° |
| 2026-04-26 17:48 | 57.53166 | 16.00810 | 35141 ft | 420 kts | 28° |
| 2026-04-26 17:48 | 57.57810 | 16.07296 | 35129 ft | 420 kts | 28° |
| 2026-04-26 17:49 | 57.62461 | 16.13817 | 35124 ft | 417 kts | 28° |
| 2026-04-26 17:49 | 57.67081 | 16.20312 | 35133 ft | 417 kts | 28° |
| 2026-04-26 17:50 | 57.71693 | 16.26818 | 35100 ft | 417 kts | 28° |
| 2026-04-26 17:50 | 57.76345 | 16.33404 | 35025 ft | 416 kts | 28° |
| 2026-04-26 17:51 | 57.80934 | 16.39920 | 35015 ft | 415 kts | 27° |
| 2026-04-26 17:51 | 57.85543 | 16.46478 | 35009 ft | 423 kts | 28° |
| 2026-04-26 17:52 | 57.87905 | 16.49851 | 34711 ft | 428 kts | 28° |
| 2026-04-26 17:52 | 57.90255 | 16.53215 | 34242 ft | 427 kts | 28° |
| 2026-04-26 17:52 | 57.92576 | 16.56548 | 33757 ft | 423 kts | 27° |
| 2026-04-26 17:52 | 57.94910 | 16.59902 | 33279 ft | 418 kts | 27° |
| 2026-04-26 17:53 | 57.97203 | 16.63202 | 32808 ft | 415 kts | 27° |
| 2026-04-26 17:53 | 57.99450 | 16.66438 | 32342 ft | 413 kts | 28° |
| 2026-04-26 17:53 | 58.01736 | 16.69735 | 31866 ft | 413 kts | 28° |
| 2026-04-26 17:54 | 58.06262 | 16.76270 | 30939 ft | 418 kts | 28° |
| 2026-04-26 17:54 | 58.08546 | 16.79581 | 30449 ft | 420 kts | 28° |
| 2026-04-26 17:54 | 58.10855 | 16.82933 | 29935 ft | 421 kts | 28° |
| 2026-04-26 17:54 | 58.13121 | 16.86234 | 29672 ft | 415 kts | 28° |
| 2026-04-26 17:55 | 58.15365 | 16.89520 | 29572 ft | 403 kts | 28° |
| 2026-04-26 17:55 | 58.17575 | 16.92742 | 29015 ft | 400 kts | 28° |
| 2026-04-26 17:55 | 58.19765 | 16.95941 | 28494 ft | 397 kts | 28° |
| 2026-04-26 17:55 | 58.21923 | 16.99100 | 27988 ft | 393 kts | 28° |
| 2026-04-26 17:56 | 58.24067 | 17.02247 | 27701 ft | 384 kts | 28° |
| 2026-04-26 17:56 | 58.28095 | 17.08189 | 27522 ft | 351 kts | 27° |
| 2026-04-26 17:57 | 58.31812 | 17.13660 | 26460 ft | 335 kts | 27° |
| 2026-04-26 17:57 | 58.33653 | 17.16370 | 25687 ft | 334 kts | 27° |
| 2026-04-26 17:57 | 58.35480 | 17.19069 | 25115 ft | 328 kts | 27° |
| 2026-04-26 17:57 | 58.37255 | 17.21698 | 24779 ft | 324 kts | 27° |
| 2026-04-26 17:58 | 58.41649 | 17.28208 | 23769 ft | 326 kts | 27° |
| 2026-04-26 17:59 | 58.45192 | 17.33482 | 22976 ft | 321 kts | 27° |
| 2026-04-26 17:59 | 58.46930 | 17.36076 | 22584 ft | 319 kts | 27° |
| 2026-04-26 17:59 | 58.48671 | 17.38674 | 22195 ft | 317 kts | 27° |
| 2026-04-26 17:59 | 58.50393 | 17.41250 | 21809 ft | 314 kts | 27° |
| 2026-04-26 18:00 | 58.52085 | 17.43785 | 21430 ft | 312 kts | 27° |
| 2026-04-26 18:00 | 58.53802 | 17.46360 | 21046 ft | 309 kts | 27° |
| 2026-04-26 18:00 | 58.55474 | 17.48868 | 20681 ft | 307 kts | 27° |
| 2026-04-26 18:00 | 58.57142 | 17.51376 | 20311 ft | 304 kts | 27° |
| 2026-04-26 18:01 | 58.58796 | 17.53865 | 19945 ft | 301 kts | 27° |
| 2026-04-26 18:01 | 58.60437 | 17.56337 | 19584 ft | 298 kts | 27° |
| 2026-04-26 18:01 | 58.62041 | 17.58756 | 19235 ft | 295 kts | 27° |
| 2026-04-26 18:01 | 58.63646 | 17.61181 | 18879 ft | 293 kts | 27° |
| 2026-04-26 18:02 | 58.65221 | 17.63563 | 18531 ft | 290 kts | 27° |
| 2026-04-26 18:02 | 58.66250 | 17.65118 | 18315 ft | 288 kts | 28° |
| 2026-04-26 18:02 | 58.68354 | 17.68307 | 17856 ft | 286 kts | 28° |
| 2026-04-26 18:02 | 58.69910 | 17.70665 | 17531 ft | 286 kts | 28° |
| 2026-04-26 18:03 | 58.71472 | 17.73038 | 17194 ft | 283 kts | 28° |
| 2026-04-26 18:03 | 58.73000 | 17.75363 | 16858 ft | 281 kts | 28° |
| 2026-04-26 18:03 | 58.74526 | 17.77684 | 16540 ft | 280 kts | 28° |
| 2026-04-26 18:03 | 58.76062 | 17.80027 | 16206 ft | 278 kts | 29° |
| 2026-04-26 18:04 | 58.77557 | 17.82307 | 15886 ft | 280 kts | 28° |
| 2026-04-26 18:04 | 58.79091 | 17.84650 | 15558 ft | 277 kts | 29° |
| 2026-04-26 18:04 | 58.80583 | 17.86934 | 15260 ft | 276 kts | 29° |
| 2026-04-26 18:05 | 58.83775 | 17.90603 | 14687 ft | 265 kts | 17° |
| 2026-04-26 18:05 | 58.85450 | 17.92147 | 14435 ft | 263 kts | 18° |
| 2026-04-26 18:05 | 58.87090 | 17.93677 | 14170 ft | 264 kts | 18° |
| 2026-04-26 18:05 | 58.88736 | 17.95218 | 13924 ft | 263 kts | 19° |
| 2026-04-26 18:06 | 58.90388 | 17.96772 | 13669 ft | 265 kts | 19° |
| 2026-04-26 18:06 | 58.92032 | 17.98324 | 13420 ft | 262 kts | 19° |
| 2026-04-26 18:06 | 58.93682 | 17.99883 | 13174 ft | 264 kts | 19° |
| 2026-04-26 18:06 | 58.95324 | 18.01437 | 12933 ft | 264 kts | 19° |
| 2026-04-26 18:07 | 58.96985 | 18.03014 | 12677 ft | 264 kts | 19° |
| 2026-04-26 18:07 | 58.98617 | 18.04563 | 12424 ft | 264 kts | 19° |
| 2026-04-26 18:07 | 59.00283 | 18.06146 | 12182 ft | 265 kts | 19° |
| 2026-04-26 18:07 | 59.01390 | 18.07199 | 12025 ft | 264 kts | 20° |
| 2026-04-26 18:08 | 59.03582 | 18.09288 | 11699 ft | 266 kts | 20° |
| 2026-04-26 18:08 | 59.05234 | 18.10865 | 11482 ft | 264 kts | 20° |
| 2026-04-26 18:08 | 59.06884 | 18.12439 | 11291 ft | 265 kts | 20° |
| 2026-04-26 18:08 | 59.08535 | 18.14017 | 11058 ft | 265 kts | 20° |
| 2026-04-26 18:09 | 59.10238 | 18.15101 | 10860 ft | 257 kts | 1° |
| 2026-04-26 18:09 | 59.11980 | 18.15341 | 10655 ft | 255 kts | 0° |
| 2026-04-26 18:09 | 59.13715 | 18.15596 | 10388 ft | 252 kts | 0° |
| 2026-04-26 18:09 | 59.15459 | 18.15828 | 10122 ft | 249 kts | 360° |
| 2026-04-26 18:10 | 59.17162 | 18.16044 | 9862 ft | 246 kts | 359° |
| 2026-04-26 18:10 | 59.18852 | 18.16252 | 9604 ft | 243 kts | 359° |
| 2026-04-26 18:10 | 59.20507 | 18.16452 | 9344 ft | 241 kts | 359° |
| 2026-04-26 18:10 | 59.22156 | 18.16649 | 9068 ft | 239 kts | 359° |
| 2026-04-26 18:11 | 59.23798 | 18.16843 | 8802 ft | 237 kts | 359° |
| 2026-04-26 18:11 | 59.25431 | 18.17038 | 8526 ft | 235 kts | 359° |
| 2026-04-26 18:11 | 59.27066 | 18.17231 | 8264 ft | 233 kts | 359° |
| 2026-04-26 18:11 | 59.28672 | 18.17420 | 7990 ft | 231 kts | 359° |
| 2026-04-26 18:12 | 59.30257 | 18.17691 | 7739 ft | 231 kts | 8° |
| 2026-04-26 18:12 | 59.31795 | 18.18486 | 7489 ft | 229 kts | 1° |
| 2026-04-26 18:12 | 59.33329 | 18.18008 | 7283 ft | 222 kts | 330° |
| 2026-04-26 18:12 | 59.34435 | 18.15933 | 7086 ft | 228 kts | 300° |
| 2026-04-26 18:13 | 59.34947 | 18.12999 | 6888 ft | 231 kts | 288° |
| 2026-04-26 18:13 | 59.35302 | 18.09945 | 6629 ft | 233 kts | 288° |
| 2026-04-26 18:13 | 59.35654 | 18.06861 | 6374 ft | 231 kts | 288° |
| 2026-04-26 18:13 | 59.35884 | 18.04828 | 6204 ft | 231 kts | 288° |
| 2026-04-26 18:14 | 59.36266 | 18.00743 | 5882 ft | 232 kts | 276° |
| 2026-04-26 18:14 | 59.36106 | 17.97613 | 5651 ft | 234 kts | 268° |
| 2026-04-26 18:14 | 59.35854 | 17.94481 | 5401 ft | 232 kts | 268° |
| 2026-04-26 18:14 | 59.35600 | 17.91427 | 5181 ft | 225 kts | 268° |
| 2026-04-26 18:15 | 59.35372 | 17.88441 | 5000 ft | 211 kts | 277° |
| 2026-04-26 18:15 | 59.35725 | 17.85956 | 4987 ft | 180 kts | 313° |
| 2026-04-26 18:15 | 59.36716 | 17.84769 | 4995 ft | 165 kts | 355° |
| 2026-04-26 18:15 | 59.37832 | 17.85252 | 5017 ft | 170 kts | 13° |
| 2026-04-26 18:16 | 59.38966 | 17.85935 | 4951 ft | 174 kts | 9° |
| 2026-04-26 18:16 | 59.41237 | 17.87073 | 4505 ft | 157 kts | 8° |
| 2026-04-26 18:16 | 59.42255 | 17.87533 | 4266 ft | 144 kts | 7° |
| 2026-04-26 18:17 | 59.43200 | 17.87938 | 4146 ft | 134 kts | 6° |
| 2026-04-26 18:17 | 59.44119 | 17.88309 | 4110 ft | 142 kts | 5° |
| 2026-04-26 18:17 | 59.45126 | 17.88700 | 3910 ft | 147 kts | 6° |
| 2026-04-26 18:17 | 59.46111 | 17.89084 | 3664 ft | 142 kts | 5° |
| 2026-04-26 18:18 | 59.47057 | 17.89442 | 3447 ft | 140 kts | 5° |
| 2026-04-26 18:18 | 59.48004 | 17.89792 | 3243 ft | 139 kts | 5° |
| 2026-04-26 18:18 | 59.48961 | 17.90143 | 3031 ft | 140 kts | 5° |
| 2026-04-26 18:18 | 59.49913 | 17.90491 | 2831 ft | 139 kts | 5° |
| 2026-04-26 18:19 | 59.50861 | 17.90835 | 2626 ft | 139 kts | 5° |
| 2026-04-26 18:19 | 59.51803 | 17.91174 | 2424 ft | 139 kts | 5° |
| 2026-04-26 18:19 | 59.52764 | 17.91520 | 2212 ft | 139 kts | 6° |
| 2026-04-26 18:19 | 59.53714 | 17.91860 | 2019 ft | 139 kts | 6° |
| 2026-04-26 18:20 | 59.54655 | 17.92201 | 1805 ft | 133 kts | 6° |
| 2026-04-26 18:20 | 59.55535 | 17.92534 | 1577 ft | 127 kts | 8° |
| 2026-04-26 18:20 | 59.56397 | 17.92875 | 1278 ft | 126 kts | 2° |
| 2026-04-26 18:20 | 59.56968 | 17.93081 | 1172 ft | 122 kts | 13° |
| 2026-04-26 18:21 | 59.58091 | 17.93771 | 892 ft | 133 kts | 1° |
| 2026-04-26 18:21 | 59.59011 | 17.93848 | 743 ft | 129 kts | 2° |
| 2026-04-26 18:21 | 59.59903 | 17.94195 | 544 ft | 134 kts | 11° |
| 2026-04-26 18:21 | 59.60839 | 17.94513 | 484 ft | 137 kts | 6° |
| 2026-04-26 18:22 | 59.61783 | 17.94791 | 325 ft | 137 kts | 8° |
| 2026-04-26 18:22 | 59.62743 | 17.95118 | 169 ft | 141 kts | 7° |
| 2026-04-26 18:22 | 59.63615 | 17.95411 | 123 ft | 97 kts | 14° |
| 2026-04-26 18:22 | 59.64097 | 17.95602 | 114 ft | 59 kts | 11° |
| 2026-04-26 18:23 | 59.64395 | 17.95697 | 113 ft | 39 kts | 3° |
| 2026-04-26 18:23 | 59.64630 | 17.95598 | 111 ft | 15 kts | 341° |
| 2026-04-26 18:23 | 59.64691 | 17.95521 | 111 ft | 8 kts | 294° |
| 2026-04-26 18:23 | 59.64681 | 17.95423 | 110 ft | 7 kts | 224° |
| 2026-04-26 18:24 | 59.64633 | 17.95378 | 109 ft | 10 kts | 209° |
| 2026-04-26 18:24 | 59.64575 | 17.95247 | 108 ft | 11 kts | 229° |
| 2026-04-26 18:24 | 59.64510 | 17.95087 | 107 ft | 18 kts | 234° |
| 2026-04-26 18:24 | 59.64430 | 17.94847 | 104 ft | 23 kts | 239° |
| 2026-04-26 18:25 | 59.64333 | 17.94550 | 100 ft | 27 kts | 237° |
| 2026-04-26 18:25 | 59.64224 | 17.94201 | 98 ft | 31 kts | 237° |
| 2026-04-26 18:25 | 59.64106 | 17.93843 | 102 ft | 29 kts | 238° |
| 2026-04-26 18:25 | 59.64006 | 17.93508 | 108 ft | 22 kts | 244° |
| 2026-04-26 18:26 | 59.63981 | 17.93307 | 111 ft | 11 kts | 241° |
| 2026-04-26 18:26 | 59.63931 | 17.93261 | 112 ft | 5 kts | 156° |
| 2026-04-26 18:26 | 59.63891 | 17.93312 | 112 ft | 6 kts | 166° |
| 2026-04-26 18:26 | 59.63849 | 17.93287 | 112 ft | 6 kts | 205° |
| 2026-04-26 18:27 | 59.63820 | 17.93258 | 112 ft | 2 kts | 207° |
| 2026-04-26 18:27 | 59.63817 | 17.93256 | 112 ft | 0 kts | 207° |